BTL weather

W K Kellogg Airport
Battle Creek, Michigan, United States

Public forecast

Using degrees Fahrenheit for public forecast. Weather courtesy of forecast.io.

Current aviation weather report (METAR) for W K Kellogg Airport

Retrieved 2020/06/05 12:53 UTC (49 minutes ago):

KBTL 051253Z 15003KT 10SM CLR 23/16 A2990 RMK AO2 SLP119 T02280156

Aviation forecast (TAF) for W K Kellogg Airport

Retrieved 2020/06/05 12:46 UTC (56 minutes ago):

TAF KBTL 051144Z 0512/0612 18004KT P6SM SCT035 BKN150 FM051600 22006KT P6SM VCSH BKN040 FM052000 25009KT P6SM VCTS BKN050CB FM060000 29009KT P6SM SCT050 BKN090 FM060200 31006KT P6SM SCT120